Deford, Michigan
Current Conditions -  °F | °C
As of 2:55 PM on Thursday 30 Oct 2014 (Local Time) from KCFS Reporting Station
Overcast Overcast  
Wind Chill: 45°   Ceiling: 3800
Heat Index: 48°   Visibility: 10mi
Dew Point: 37°   Wind: 6mph
Humidity: 65%   Direction: 230°SW
Pressure: 30.06"   Gusts: NA
Location:  43.51°N, 83.19°W
Report Text: KCFS 301855Z AUTO 23005KT 10SM SCT030 BKN038 OVC046 09/03 A3006 RMK AO2 T00880025
Loading
Personal Weather Stations






























Interactive Weather Map
Tropical Storm Tracking
New forecast layout! Learn more

10-Day Weather Forecast

Advertisements
Track Severe Weather on mobile